Time;durP1;ratioP1;P1;durP2;ratioP2;P2;SDS_P1;SDS_P2;PMS_P1;PMS_P2;Temp;Humidity;BMP_temperature;BMP_pressure;BME280_temperature;BME280_humidity;BME280_pressure;Samples;Min_cycle;Max_cycle;Signal;HPM_P1;HPM_P2
2022/04/22 00:00:10;;;;;;;10.48;8.23;;;;;;;;;;6258825;28;20135;-70
2022/04/22 00:03:12;;;;;;;13.35;9.68;;;;;;;;;;6259458;28;20056;-69
2022/04/22 00:06:15;;;;;;;11.32;8.20;;;;;;;;;;6260909;28;20134;-70
2022/04/22 00:09:16;;;;;;;12.05;8.77;;;;;;;;;;6261294;28;20076;-70
2022/04/22 00:12:18;;;;;;;10.63;9.27;;;;;;;;;;6256172;28;20346;-70
2022/04/22 00:15:20;;;;;;;12.18;9.05;;;;;;;;;;6258191;28;20057;-70
2022/04/22 00:18:23;;;;;;;12.25;8.95;;;;;;;;;;6257528;28;20048;-70
2022/04/22 00:21:27;;;;;;;13.73;9.45;;;;;;;;;;6260063;28;20088;-69
2022/04/22 00:24:29;;;;;;;16.35;9.75;;;;;;;;;;6258410;28;20084;-70
2022/04/22 00:27:30;;;;;;;12.20;10.02;;;;;;;;;;6263603;28;20126;-69
2022/04/22 00:30:32;;;;;;;12.35;9.98;;;;;;;;;;6263835;28;20049;-69
2022/04/22 00:33:33;;;;;;;16.80;10.40;;;;;;;;;;6266021;28;20088;-69
2022/04/22 00:36:36;;;;;;;16.77;11.27;;;;;;;;;;6260123;28;20518;-70
2022/04/22 00:39:38;;;;;;;14.43;11.18;;;;;;;;;;6264930;28;20543;-69
2022/04/22 00:42:40;;;;;;;15.32;11.25;;;;;;;;;;6264408;28;20049;-70
2022/04/22 00:45:41;;;;;;;15.55;10.43;;;;;;;;;;6264536;28;20065;-70
2022/04/22 00:48:43;;;;;;;17.30;11.07;;;;;;;;;;6265501;28;20045;-70
2022/04/22 00:51:46;;;;;;;16.70;11.10;;;;;;;;;;6257911;28;20049;-70
2022/04/22 00:54:48;;;;;;;16.90;12.32;;;;;;;;;;6262856;28;20123;-72
2022/04/22 00:57:50;;;;;;;16.00;11.45;;;;;;;;;;6261827;28;20053;-70
2022/04/22 01:00:52;;;;;;;15.73;12.15;;;;;;;;;;6256681;28;20045;-70
2022/04/22 01:10:35;;;;;;;16.35;10.77;;;;;;;;;;6239300;28;20095;-70
2022/04/22 01:13:37;;;;;;;16.73;11.18;;;;;;;;;;6258307;28;20087;-70
2022/04/22 01:16:39;;;;;;;15.52;11.13;;;;;;;;;;6254895;28;20468;-70
2022/04/22 01:19:41;;;;;;;14.25;10.80;;;;;;;;;;6258599;28;20144;-70
2022/04/22 01:22:44;;;;;;;19.65;11.73;;;;;;;;;;6256629;28;20045;-70
2022/04/22 01:25:46;;;;;;;14.52;11.02;;;;;;;;;;6257851;28;20571;-70
2022/04/22 01:28:49;;;;;;;17.13;11.73;;;;;;;;;;6259858;28;20119;-70
2022/04/22 01:31:50;;;;;;;14.02;10.80;;;;;;;;;;6258663;28;20117;-69
2022/04/22 01:34:52;;;;;;;16.17;10.93;;;;;;;;;;6258452;28;20122;-70
2022/04/22 01:37:55;;;;;;;15.23;11.73;;;;;;;;;;6258716;28;20056;-70
2022/04/22 01:40:57;;;;;;;15.57;11.37;;;;;;;;;;6259954;28;20057;-69
2022/04/22 01:43:58;;;;;;;24.10;11.98;;;;;;;;;;6255281;28;20140;-69
2022/04/22 01:47:00;;;;;;;16.38;11.48;;;;;;;;;;6263614;28;20255;-69
2022/04/22 01:50:01;;;;;;;15.02;11.80;;;;;;;;;;6260695;28;20084;-70
2022/04/22 01:53:06;;;;;;;15.13;11.45;;;;;;;;;;6265148;28;20098;-70
2022/04/22 01:56:08;;;;;;;16.48;11.57;;;;;;;;;;6263724;28;20580;-70
2022/04/22 01:59:10;;;;;;;16.20;12.05;;;;;;;;;;6263868;28;20127;-70
2022/04/22 02:02:12;;;;;;;15.82;11.40;;;;;;;;;;6263377;28;20053;-70
2022/04/22 02:05:13;;;;;;;16.83;11.93;;;;;;;;;;6263102;28;20053;-69
2022/04/22 02:08:16;;;;;;;16.38;11.93;;;;;;;;;;6258458;28;20045;-69
2022/04/22 02:11:18;;;;;;;20.23;13.00;;;;;;;;;;6257447;28;20045;-70
2022/04/22 02:14:20;;;;;;;19.40;13.35;;;;;;;;;;6255916;28;20501;-69
2022/04/22 02:17:21;;;;;;;18.95;12.95;;;;;;;;;;6250414;28;20561;-70
2022/04/22 02:20:23;;;;;;;17.02;12.77;;;;;;;;;;6255283;28;20065;-70
2022/04/22 02:23:26;;;;;;;16.55;12.48;;;;;;;;;;6253494;28;20115;-71
2022/04/22 02:26:28;;;;;;;18.95;12.77;;;;;;;;;;6259364;28;20130;-69
2022/04/22 02:29:29;;;;;;;17.77;12.65;;;;;;;;;;6255391;28;20388;-69
2022/04/22 02:32:30;;;;;;;18.20;12.35;;;;;;;;;;6256724;28;20147;-69
2022/04/22 02:35:32;;;;;;;19.08;13.18;;;;;;;;;;6257282;28;20424;-69
2022/04/22 02:38:36;;;;;;;16.42;11.85;;;;;;;;;;6256737;28;20059;-69
2022/04/22 02:48:12;;;;;;;19.55;12.98;;;;;;;;;;6257361;28;20412;-70
2022/04/22 02:51:14;;;;;;;18.02;13.73;;;;;;;;;;6259691;28;20072;-69
2022/04/22 02:54:16;;;;;;;19.33;13.80;;;;;;;;;;6259487;28;20110;-70
2022/04/22 02:57:18;;;;;;;17.52;13.27;;;;;;;;;;6261846;28;20484;-69
2022/04/22 03:00:20;;;;;;;19.00;14.02;;;;;;;;;;6249718;28;20037;-68
2022/04/22 03:03:22;;;;;;;19.33;13.50;;;;;;;;;;6259954;28;20520;-70
2022/04/22 03:06:26;;;;;;;18.98;13.95;;;;;;;;;;6257579;28;20058;-70
2022/04/22 03:09:28;;;;;;;16.38;12.88;;;;;;;;;;6256462;28;20379;-67
2022/04/22 03:12:30;;;;;;;17.27;13.80;;;;;;;;;;6252615;28;20081;-69
2022/04/22 03:15:33;;;;;;;16.35;11.80;;;;;;;;;;6254609;28;20045;-70
2022/04/22 03:18:35;;;;;;;18.13;13.07;;;;;;;;;;6258866;28;20048;-69
2022/04/22 03:21:37;;;;;;;18.10;13.10;;;;;;;;;;6253845;28;20354;-69
2022/04/22 03:24:40;;;;;;;18.38;13.60;;;;;;;;;;6253002;28;20461;-70
2022/04/22 03:27:41;;;;;;;18.75;13.77;;;;;;;;;;6263130;28;20152;-69
2022/04/22 03:30:43;;;;;;;18.20;13.00;;;;;;;;;;6260854;28;20053;-69
2022/04/22 03:33:44;;;;;;;18.55;13.50;;;;;;;;;;6263751;28;20122;-69
2022/04/22 03:36:46;;;;;;;19.33;13.20;;;;;;;;;;6260804;28;20149;-69
2022/04/22 03:39:49;;;;;;;19.33;13.48;;;;;;;;;;6263514;28;20218;-70
2022/04/22 03:42:52;;;;;;;19.17;13.32;;;;;;;;;;6262291;28;20048;-69
2022/04/22 03:45:54;;;;;;;21.98;13.75;;;;;;;;;;6262769;28;20052;-70
2022/04/22 03:48:57;;;;;;;21.02;13.50;;;;;;;;;;6262748;28;20154;-68
2022/04/22 03:51:59;;;;;;;22.02;14.57;;;;;;;;;;6262631;28;20410;-69
2022/04/22 03:55:02;;;;;;;19.70;14.30;;;;;;;;;;6262617;28;20077;-69
2022/04/22 03:58:11;;;;;;;21.00;14.95;;;;;;;;;;6256120;28;20063;-69
2022/04/22 04:01:12;;;;;;;21.38;14.82;;;;;;;;;;6258100;28;20555;-69
2022/04/22 04:04:14;;;;;;;20.23;14.25;;;;;;;;;;6254414;28;20091;-69
2022/04/22 04:07:16;;;;;;;21.50;13.35;;;;;;;;;;6254169;28;20107;-69
2022/04/22 04:16:57;;;;;;;23.27;15.40;;;;;;;;;;6259293;28;20053;-70
2022/04/22 04:23:18;;;;;;;23.88;16.17;;;;;;;;;;6258367;28;20136;-70
2022/04/22 04:26:24;;;;;;;22.58;16.00;;;;;;;;;;6259648;28;20045;-69
2022/04/22 04:29:26;;;;;;;26.73;16.20;;;;;;;;;;6258656;28;20504;-69
2022/04/22 04:32:27;;;;;;;23.92;16.40;;;;;;;;;;6261327;28;20057;-69
2022/04/22 04:35:29;;;;;;;26.30;17.27;;;;;;;;;;6262413;28;20079;-69
2022/04/22 04:38:31;;;;;;;25.88;16.45;;;;;;;;;;6252977;28;20571;-69
2022/04/22 04:41:34;;;;;;;26.88;16.38;;;;;;;;;;6260521;28;20119;-69
2022/04/22 04:44:36;;;;;;;23.85;15.68;;;;;;;;;;6260894;28;20154;-70
2022/04/22 04:47:41;;;;;;;25.25;15.90;;;;;;;;;;6263839;28;20080;-69
2022/04/22 04:50:44;;;;;;;24.08;15.90;;;;;;;;;;6258294;28;20191;-69
2022/04/22 04:53:45;;;;;;;25.45;16.45;;;;;;;;;;6266311;28;20045;-69
2022/04/22 04:56:48;;;;;;;24.30;16.98;;;;;;;;;;6249542;28;21489;-69
2022/04/22 04:59:50;;;;;;;24.45;15.70;;;;;;;;;;6253134;28;20100;-69
2022/04/22 05:02:51;;;;;;;23.17;16.38;;;;;;;;;;6255430;28;20052;-69
2022/04/22 05:05:53;;;;;;;26.48;17.20;;;;;;;;;;6255735;28;20096;-69
2022/04/22 05:08:55;;;;;;;24.17;16.35;;;;;;;;;;6254715;28;20061;-68
2022/04/22 05:11:58;;;;;;;24.38;16.30;;;;;;;;;;6257105;28;20045;-69
2022/04/22 05:15:00;;;;;;;23.92;15.77;;;;;;;;;;6256345;28;20075;-67
2022/04/22 05:18:02;;;;;;;25.52;16.48;;;;;;;;;;6257323;28;20132;-69
2022/04/22 05:21:03;;;;;;;25.48;16.70;;;;;;;;;;6259437;28;20045;-70
2022/04/22 05:24:06;;;;;;;24.83;17.27;;;;;;;;;;6259105;28;20524;-70
2022/04/22 05:27:09;;;;;;;28.20;17.85;;;;;;;;;;6257262;28;20127;-69
2022/04/22 05:33:51;;;;;;;25.10;15.95;;;;;;;;;;6262180;28;20049;-70
2022/04/22 05:40:03;;;;;;;21.88;15.73;;;;;;;;;;6271514;23;20053;-70
2022/04/22 05:43:07;;;;;;;24.02;16.60;;;;;;;;;;6217971;28;20730;-70
2022/04/22 05:46:08;;;;;;;25.35;16.50;;;;;;;;;;6216401;28;20406;-70
2022/04/22 05:49:10;;;;;;;23.00;16.33;;;;;;;;;;6218161;28;20056;-71
2022/04/22 05:52:12;;;;;;;27.02;16.15;;;;;;;;;;6218804;28;20049;-70
2022/04/22 05:55:16;;;;;;;23.83;16.30;;;;;;;;;;6215811;28;20137;-67
2022/04/22 05:58:19;;;;;;;23.88;16.23;;;;;;;;;;6218496;28;20069;-68
2022/04/22 06:01:21;;;;;;;22.23;15.88;;;;;;;;;;6218641;28;20069;-70
2022/04/22 06:04:23;;;;;;;23.27;15.40;;;;;;;;;;6215794;28;20172;-69
2022/04/22 06:07:24;;;;;;;22.08;15.43;;;;;;;;;;6217898;28;20427;-69
2022/04/22 06:10:34;;;;;;;25.02;16.13;;;;;;;;;;6217246;28;20120;-70
2022/04/22 06:13:37;;;;;;;23.38;15.93;;;;;;;;;;6215968;28;20045;-69
2022/04/22 06:16:39;;;;;;;22.15;16.70;;;;;;;;;;6218224;28;20164;-70
2022/04/22 06:19:40;;;;;;;25.23;16.70;;;;;;;;;;6217307;28;20123;-69
2022/04/22 06:22:42;;;;;;;23.98;16.33;;;;;;;;;;6217935;28;20046;-70
2022/04/22 06:25:46;;;;;;;23.10;15.93;;;;;;;;;;6216279;28;20192;-70
2022/04/22 06:28:49;;;;;;;25.25;16.33;;;;;;;;;;6217529;28;20583;-69
2022/04/22 06:31:51;;;;;;;24.63;15.85;;;;;;;;;;6215443;28;20046;-69
2022/04/22 06:34:53;;;;;;;20.80;15.02;;;;;;;;;;6216630;28;20085;-71
2022/04/22 06:37:56;;;;;;;23.77;15.73;;;;;;;;;;6216237;28;20409;-70
2022/04/22 06:47:38;;;;;;;22.73;16.10;;;;;;;;;;6215977;28;20046;-70
2022/04/22 06:50:40;;;;;;;23.73;15.70;;;;;;;;;;6216892;28;20058;-70
2022/04/22 06:53:43;;;;;;;25.73;15.20;;;;;;;;;;6217655;28;20052;-70
2022/04/22 06:56:45;;;;;;;24.35;15.98;;;;;;;;;;6218204;28;20205;-71
2022/04/22 06:59:48;;;;;;;24.60;16.42;;;;;;;;;;6218510;28;20061;-71
2022/04/22 07:03:21;;;;;;;25.83;16.73;;;;;;;;;;6222140;28;20490;-71
2022/04/22 07:06:23;;;;;;;20.45;15.15;;;;;;;;;;6221747;28;20054;-69
2022/04/22 07:09:25;;;;;;;25.38;16.00;;;;;;;;;;6221909;28;20058;-71
2022/04/22 07:12:28;;;;;;;25.02;14.95;;;;;;;;;;6222274;28;20173;-70
2022/04/22 07:15:32;;;;;;;24.02;14.70;;;;;;;;;;6219749;28;20180;-72
2022/04/22 07:18:34;;;;;;;22.88;15.35;;;;;;;;;;6221901;28;20054;-71
2022/04/22 07:21:36;;;;;;;23.45;14.90;;;;;;;;;;6221872;28;20167;-71
2022/04/22 07:24:38;;;;;;;22.52;15.30;;;;;;;;;;6222349;28;20132;-70
2022/04/22 07:27:42;;;;;;;22.45;15.38;;;;;;;;;;6221823;28;20072;-71
2022/04/22 07:30:46;;;;;;;;;;;;;;;;;;6223167;28;20050;-70
2022/04/22 07:33:49;;;;;;;18.85;14.02;;;;;;;;;;6221146;28;20016;-71
2022/04/22 07:36:51;;;;;;;20.48;15.10;;;;;;;;;;6222527;28;20121;-71
2022/04/22 07:39:53;;;;;;;21.45;15.18;;;;;;;;;;6222193;28;20042;-70
2022/04/22 07:49:35;;;;;;;21.45;13.95;;;;;;;;;;6220077;28;20341;-70
2022/04/22 07:52:37;;;;;;;21.77;15.40;;;;;;;;;;6221464;28;20050;-70
2022/04/22 07:55:39;;;;;;;21.73;14.90;;;;;;;;;;6220733;28;20054;-70
2022/04/22 07:58:41;;;;;;;23.67;15.98;;;;;;;;;;6221398;28;20053;-70
2022/04/22 08:01:44;;;;;;;22.00;14.13;;;;;;;;;;6220475;28;20050;-70
2022/04/22 08:04:45;;;;;;;23.02;16.00;;;;;;;;;;6221107;28;20129;-67
2022/04/22 08:07:47;;;;;;;28.42;15.00;;;;;;;;;;6221162;28;20057;-70
2022/04/22 08:10:48;;;;;;;19.15;14.77;;;;;;;;;;6218668;28;20140;-70
2022/04/22 08:13:50;;;;;;;23.70;14.82;;;;;;;;;;6220270;28;20058;-71
2022/04/22 08:16:53;;;;;;;22.73;15.85;;;;;;;;;;6218795;28;20390;-71
2022/04/22 08:19:55;;;;;;;22.17;14.70;;;;;;;;;;6219841;28;20412;-71
2022/04/22 08:22:57;;;;;;;20.85;15.18;;;;;;;;;;6218977;28;20548;-70
2022/04/22 08:25:58;;;;;;;18.95;15.02;;;;;;;;;;6220746;28;20065;-72
2022/04/22 08:29:00;;;;;;;21.08;14.85;;;;;;;;;;6219345;28;20050;-70
2022/04/22 08:32:04;;;;;;;20.48;15.23;;;;;;;;;;6220732;28;20140;-71
2022/04/22 08:35:08;;;;;;;20.95;15.82;;;;;;;;;;6218804;28;20417;-70
2022/04/22 08:38:10;;;;;;;22.98;15.75;;;;;;;;;;6219471;28;20049;-70
2022/04/22 08:41:11;;;;;;;20.45;15.30;;;;;;;;;;6219869;28;20061;-71
2022/04/22 08:44:14;;;;;;;23.13;15.73;;;;;;;;;;6220359;28;20133;-71
2022/04/22 08:50:37;;;;;;;22.40;15.98;;;;;;;;;;6218823;28;20482;-71
2022/04/22 08:53:40;;;;;;;27.05;16.05;;;;;;;;;;6218980;28;20046;-71
2022/04/22 08:56:42;;;;;;;25.65;15.15;;;;;;;;;;6218803;28;20133;-71
2022/04/22 08:59:43;;;;;;;21.38;15.38;;;;;;;;;;6218520;28;20073;-70
2022/04/22 09:02:47;;;;;;;21.80;16.00;;;;;;;;;;6219906;28;20057;-70
2022/04/22 09:05:48;;;;;;;18.90;15.47;;;;;;;;;;6218477;28;20069;-71
2022/04/22 09:08:51;;;;;;;18.33;13.98;;;;;;;;;;6219991;28;20068;-71
2022/04/22 09:11:53;;;;;;;21.02;14.93;;;;;;;;;;6219564;28;20046;-71
2022/04/22 09:14:56;;;;;;;20.58;14.77;;;;;;;;;;6219201;28;20066;-72
2022/04/22 09:18:00;;;;;;;19.92;15.43;;;;;;;;;;6218722;28;20053;-70
2022/04/22 09:21:06;;;;;;;23.65;15.77;;;;;;;;;;6217304;28;20516;-70
2022/04/22 09:24:13;;;;;;;18.20;14.25;;;;;;;;;;6219459;28;20421;-71
2022/04/22 09:27:14;;;;;;;20.08;15.35;;;;;;;;;;6219251;28;20860;-71
2022/04/22 09:30:16;;;;;;;21.05;15.52;;;;;;;;;;6217923;28;20057;-70
2022/04/22 09:33:19;;;;;;;23.02;15.15;;;;;;;;;;6219040;28;20045;-70
2022/04/22 09:42:59;;;;;;;23.42;16.77;;;;;;;;;;6218273;28;20431;-71
2022/04/22 09:46:02;;;;;;;25.60;16.77;;;;;;;;;;6214972;28;20053;-71
2022/04/22 09:49:06;;;;;;;22.60;16.30;;;;;;;;;;6217337;28;20053;-70
2022/04/22 09:52:08;;;;;;;20.48;16.38;;;;;;;;;;6218148;28;20105;-70
2022/04/22 09:55:13;;;;;;;18.92;14.85;;;;;;;;;;6214754;28;20045;-70
2022/04/22 09:58:22;;;;;;;20.30;15.90;;;;;;;;;;6200571;28;20049;-70
2022/04/22 10:01:25;;;;;;;30.45;18.67;;;;;;;;;;6208112;28;20038;-73
2022/04/22 10:04:28;;;;;;;25.80;17.65;;;;;;;;;;6216485;28;20073;-74
2022/04/22 10:07:32;;;;;;;20.23;16.38;;;;;;;;;;6217917;28;20097;-69
2022/04/22 10:10:36;;;;;;;23.15;15.32;;;;;;;;;;6217894;28;20054;-71
2022/04/22 10:13:41;;;;;;;24.42;16.95;;;;;;;;;;6218712;28;20667;-70
2022/04/22 10:16:43;;;;;;;22.23;17.05;;;;;;;;;;6215605;28;20045;-70
2022/04/22 10:19:47;;;;;;;26.70;18.52;;;;;;;;;;6217171;28;20129;-70
2022/04/22 10:22:50;;;;;;;25.45;18.08;;;;;;;;;;6217218;28;20053;-69
2022/04/22 10:25:51;;;;;;;26.45;18.88;;;;;;;;;;6216887;28;20072;-69
2022/04/22 10:28:54;;;;;;;23.83;18.13;;;;;;;;;;6216810;28;20112;-72
2022/04/22 10:31:56;;;;;;;22.98;17.23;;;;;;;;;;6217796;28;20509;-70
2022/04/22 10:35:00;;;;;;;31.38;17.95;;;;;;;;;;6217901;28;20042;-71
2022/04/22 10:38:01;;;;;;;23.17;18.33;;;;;;;;;;6222017;28;20061;-71
2022/04/22 10:41:05;;;;;;;43.97;19.23;;;;;;;;;;6220332;28;20049;-70
2022/04/22 10:47:38;;;;;;;22.75;16.65;;;;;;;;;;6221118;28;19921;-71
2022/04/22 10:50:42;;;;;;;21.58;17.60;;;;;;;;;;6220843;28;20053;-70
2022/04/22 10:53:49;;;;;;;22.67;16.67;;;;;;;;;;6220781;28;20450;-70
2022/04/22 10:57:06;;;;;;;23.45;17.40;;;;;;;;;;6222340;28;20121;-72
2022/04/22 11:00:29;;;;;;;22.80;17.52;;;;;;;;;;6220065;28;20127;-70
2022/04/22 11:03:34;;;;;;;27.60;17.95;;;;;;;;;;6220887;28;20046;-70
2022/04/22 11:06:37;;;;;;;22.42;16.65;;;;;;;;;;6222161;28;20145;-71
2022/04/22 11:09:44;;;;;;;24.80;17.48;;;;;;;;;;6221447;28;20137;-70
2022/04/22 11:12:53;;;;;;;24.17;17.30;;;;;;;;;;6222233;28;20144;-70
2022/04/22 11:15:57;;;;;;;20.08;14.98;;;;;;;;;;6221359;28;20045;-70
2022/04/22 11:19:26;;;;;;;;;;;;;;;;;;6221013;28;20354;-70
2022/04/22 11:22:57;;;;;;;20.55;15.38;;;;;;;;;;6220954;28;19926;-70
2022/04/22 11:25:58;;;;;;;24.92;16.73;;;;;;;;;;6220735;28;20620;-69
2022/04/22 11:29:00;;;;;;;21.95;16.38;;;;;;;;;;6220175;28;20061;-71
2022/04/22 11:32:11;;;;;;;22.77;17.17;;;;;;;;;;6221592;28;20054;-73
2022/04/22 11:35:19;;;;;;;20.05;16.83;;;;;;;;;;6220531;28;20141;-69
2022/04/22 11:38:22;;;;;;;21.77;16.65;;;;;;;;;;6221337;28;20066;-69
2022/04/22 11:41:24;;;;;;;21.40;17.07;;;;;;;;;;6222184;28;20069;-74
2022/04/22 11:44:26;;;;;;;21.52;15.27;;;;;;;;;;6226210;28;20089;-71
2022/04/22 11:47:29;;;;;;;19.23;13.93;;;;;;;;;;6217412;28;20140;-70
2022/04/22 11:50:37;;;;;;;19.33;14.15;;;;;;;;;;6220795;28;20050;-71
2022/04/22 11:53:46;;;;;;;16.08;12.85;;;;;;;;;;6218437;28;20058;-69
2022/04/22 11:56:47;;;;;;;15.85;12.90;;;;;;;;;;6223938;28;20193;-72
2022/04/22 12:05:32;;;;;;;19.77;14.10;;;;;;;;;;6222888;28;20053;-72
2022/04/22 12:06:31;;;;;;;16.58;13.07;;;;;;;;;;6220247;28;20406;-72
2022/04/22 12:09:34;;;;;;;16.73;12.80;;;;;;;;;;6220809;28;20383;-72
2022/04/22 12:12:47;;;;;;;18.63;13.00;;;;;;;;;;6221375;28;20056;-73
2022/04/22 12:15:49;;;;;;;16.52;12.45;;;;;;;;;;6220081;28;20587;-73
2022/04/22 12:18:53;;;;;;;14.35;11.48;;;;;;;;;;6221933;28;20058;-73
2022/04/22 12:21:56;;;;;;;14.88;12.07;;;;;;;;;;6218906;28;20046;-72
2022/04/22 12:25:10;;;;;;;19.30;12.13;;;;;;;;;;6219859;28;20049;-73
2022/04/22 12:28:13;;;;;;;;;;;;;;;;;;6219041;28;20046;-72
2022/04/22 12:31:22;;;;;;;13.70;10.10;;;;;;;;;;6219859;28;20027;-72
2022/04/22 12:34:28;;;;;;;12.52;9.50;;;;;;;;;;6219563;28;20136;-72
2022/04/22 12:37:32;;;;;;;11.77;8.90;;;;;;;;;;6218249;28;20056;-73
2022/04/22 12:40:49;;;;;;;10.93;9.23;;;;;;;;;;6220012;28;20116;-73
2022/04/22 12:43:52;;;;;;;15.50;9.25;;;;;;;;;;6216778;28;20402;-72
2022/04/22 12:53:42;;;;;;;15.25;11.27;;;;;;;;;;6220167;28;20049;-71
2022/04/22 13:38:07;;;;;;;11.02;7.05;;;;;;;;;;6335398;27;20561;-72
2022/04/22 13:41:08;;;;;;;10.80;6.30;;;;;;;;;;6295782;28;20117;-70
2022/04/22 13:44:10;;;;;;;9.13;6.72;;;;;;;;;;6304950;28;20092;-72
2022/04/22 13:52:40;;;;;;;10.48;6.85;;;;;;;;;;6351605;27;20133;-71
2022/04/22 13:55:41;;;;;;;9.83;6.67;;;;;;;;;;6300406;27;20048;-71
2022/04/22 13:58:43;;;;;;;11.90;7.57;;;;;;;;;;6299956;28;20493;-71
2022/04/22 14:01:45;;;;;;;14.70;7.47;;;;;;;;;;6294909;28;20053;-73
2022/04/22 14:11:18;;;;;;;12.45;7.30;;;;;;;;;;6325397;27;20847;-71
2022/04/22 14:14:22;;;;;;;10.00;7.80;;;;;;;;;;6247504;28;20120;-72
2022/04/22 14:17:23;;;;;;;;;;;;;;;;;;6230386;28;20041;-71
2022/04/22 14:20:25;;;;;;;11.32;8.10;;;;;;;;;;6254833;28;20421;-72
2022/04/22 14:23:26;;;;;;;13.20;8.80;;;;;;;;;;6255890;28;20465;-72
2022/04/22 14:26:30;;;;;;;12.43;8.25;;;;;;;;;;6254489;28;20490;-72
2022/04/22 14:29:31;;;;;;;14.18;8.88;;;;;;;;;;6258742;28;20065;-72
2022/04/22 14:32:33;;;;;;;19.17;8.35;;;;;;;;;;6251617;28;20097;-72
2022/04/22 14:35:35;;;;;;;8.52;7.13;;;;;;;;;;6256755;28;20134;-72
2022/04/22 14:38:36;;;;;;;8.77;7.22;;;;;;;;;;6246989;28;20050;-72
2022/04/22 14:41:41;;;;;;;11.85;7.43;;;;;;;;;;6244963;28;20124;-72
2022/04/22 14:44:43;;;;;;;19.23;7.70;;;;;;;;;;6243515;28;20494;-72
2022/04/22 14:47:44;;;;;;;11.48;8.00;;;;;;;;;;6251311;28;20056;-71
2022/04/22 14:50:46;;;;;;;10.70;8.38;;;;;;;;;;6247016;28;20176;-72
2022/04/22 14:53:48;;;;;;;10.82;7.65;;;;;;;;;;6249283;28;20060;-72
2022/04/22 14:56:51;;;;;;;12.80;9.82;;;;;;;;;;6251776;28;20465;-72
2022/04/22 14:59:53;;;;;;;15.00;9.40;;;;;;;;;;6255341;28;20049;-69
2022/04/22 15:02:55;;;;;;;10.10;7.85;;;;;;;;;;6252190;28;20093;-74
2022/04/22 15:05:56;;;;;;;11.20;8.40;;;;;;;;;;6248822;28;20074;-73
2022/04/22 15:08:58;;;;;;;12.05;8.43;;;;;;;;;;6246694;28;20073;-73
2022/04/22 15:12:01;;;;;;;10.85;7.90;;;;;;;;;;6248991;28;20061;-73
2022/04/22 15:15:03;;;;;;;14.63;9.47;;;;;;;;;;6236614;28;20058;-73
2022/04/22 15:24:43;;;;;;;18.65;8.95;;;;;;;;;;6230883;28;20129;-71
2022/04/22 15:27:46;;;;;;;11.50;9.00;;;;;;;;;;6230633;28;20053;-72
2022/04/22 15:31:11;;;;;;;18.13;8.85;;;;;;;;;;6237074;28;20165;-71
2022/04/22 15:34:13;;;;;;;18.30;8.40;;;;;;;;;;6236330;28;20052;-72
2022/04/22 15:37:14;;;;;;;23.55;8.57;;;;;;;;;;6240767;28;20145;-71
2022/04/22 15:40:16;;;;;;;48.65;22.35;;;;;;;;;;6235577;28;20133;-71
2022/04/22 15:43:19;;;;;;;33.75;10.10;;;;;;;;;;6237517;28;20404;-71
2022/04/22 15:46:22;;;;;;;15.75;8.50;;;;;;;;;;6226319;28;20164;-71
2022/04/22 15:49:24;;;;;;;19.20;8.32;;;;;;;;;;6230308;28;20045;-73
2022/04/22 15:52:28;;;;;;;9.85;7.57;;;;;;;;;;6234567;28;20052;-71
2022/04/22 15:55:29;;;;;;;12.25;7.63;;;;;;;;;;6239656;28;20049;-71
2022/04/22 15:58:34;;;;;;;11.73;7.65;;;;;;;;;;6235841;28;20064;-71
2022/04/22 16:01:36;;;;;;;14.63;6.85;;;;;;;;;;6235005;28;20057;-71
2022/04/22 16:04:37;;;;;;;7.97;6.28;;;;;;;;;;6234063;28;20125;-71
2022/04/22 16:07:39;;;;;;;6.90;5.25;;;;;;;;;;6234972;28;20053;-71
2022/04/22 16:10:41;;;;;;;4.78;3.70;;;;;;;;;;6237274;28;20073;-71
2022/04/22 16:17:03;;;;;;;4.10;2.80;;;;;;;;;;6232296;28;20494;-73
2022/04/22 16:20:06;;;;;;;5.03;2.85;;;;;;;;;;6235982;28;20061;-71
2022/04/22 16:23:08;;;;;;;6.28;3.13;;;;;;;;;;6233311;28;20073;-72
2022/04/22 16:26:10;;;;;;;3.90;3.22;;;;;;;;;;6239033;28;20549;-72
2022/04/22 16:29:13;;;;;;;10.27;3.50;;;;;;;;;;6235066;28;20057;-72
2022/04/22 16:32:14;;;;;;;3.28;2.97;;;;;;;;;;6235838;28;20046;-71
2022/04/22 16:35:16;;;;;;;6.95;3.03;;;;;;;;;;6235004;28;20042;-72
2022/04/22 16:38:19;;;;;;;2.20;1.98;;;;;;;;;;6237631;28;20057;-72
2022/04/22 16:41:21;;;;;;;3.90;2.20;;;;;;;;;;6238654;28;20415;-71
2022/04/22 16:44:24;;;;;;;5.10;2.53;;;;;;;;;;6231567;28;20659;-71
2022/04/22 16:47:26;;;;;;;3.70;2.10;;;;;;;;;;6228297;28;20053;-72
2022/04/22 16:50:27;;;;;;;3.55;1.95;;;;;;;;;;6231771;28;20140;-74
2022/04/22 16:53:32;;;;;;;3.80;2.03;;;;;;;;;;6236698;28;20053;-71
2022/04/22 16:56:34;;;;;;;3.13;2.35;;;;;;;;;;6235576;28;20172;-72
2022/04/22 16:59:37;;;;;;;6.05;2.70;;;;;;;;;;6232612;28;20128;-72
2022/04/22 17:02:40;;;;;;;3.20;2.17;;;;;;;;;;6234092;28;20050;-72
2022/04/22 17:05:44;;;;;;;2.90;2.40;;;;;;;;;;6235532;28;20448;-73
2022/04/22 17:08:46;;;;;;;5.45;2.33;;;;;;;;;;6236423;28;20130;-72
2022/04/22 17:11:47;;;;;;;2.88;2.00;;;;;;;;;;6230907;28;20080;-73
2022/04/22 17:24:47;;;;;;;5.10;2.78;;;;;;;;;;6226476;28;20041;-71
2022/04/22 17:27:51;;;;;;;3.30;2.38;;;;;;;;;;6236882;28;20525;-72
2022/04/22 17:30:54;;;;;;;5.15;2.50;;;;;;;;;;6234322;28;20079;-72
2022/04/22 17:33:56;;;;;;;4.10;3.47;;;;;;;;;;6227427;28;20133;-76
2022/04/22 17:36:58;;;;;;;4.30;3.28;;;;;;;;;;6234655;28;20528;-71
2022/04/22 17:40:00;;;;;;;4.40;3.25;;;;;;;;;;6232423;28;20060;-70
2022/04/22 17:43:01;;;;;;;5.97;2.78;;;;;;;;;;6231359;28;20166;-70
2022/04/22 17:46:05;;;;;;;3.95;2.83;;;;;;;;;;6228089;28;20366;-76
2022/04/22 17:49:06;;;;;;;3.15;2.85;;;;;;;;;;6233250;28;20147;-78
2022/04/22 17:52:08;;;;;;;7.60;3.30;;;;;;;;;;6233507;28;20061;-74
2022/04/22 17:55:11;;;;;;;3.28;2.97;;;;;;;;;;6232666;28;20120;-76
2022/04/22 17:58:13;;;;;;;3.80;3.28;;;;;;;;;;6233915;28;20057;-75
2022/04/22 18:01:17;;;;;;;4.60;3.33;;;;;;;;;;6232709;28;20528;-73
2022/04/22 18:04:19;;;;;;;6.10;4.38;;;;;;;;;;6231209;28;20049;-74
2022/04/22 18:07:21;;;;;;;4.25;2.53;;;;;;;;;;6229356;28;20064;-73
2022/04/22 18:10:25;;;;;;;5.43;4.25;;;;;;;;;;6230676;28;20046;-73
2022/04/22 18:13:26;;;;;;;5.72;4.43;;;;;;;;;;6226336;28;20761;-73
2022/04/22 18:16:28;;;;;;;4.80;3.50;;;;;;;;;;6230075;28;20064;-74
2022/04/22 18:19:31;;;;;;;4.68;3.00;;;;;;;;;;6234172;28;20422;-73
2022/04/22 18:22:33;;;;;;;6.15;3.28;;;;;;;;;;6229613;28;20151;-75
2022/04/22 18:25:36;;;;;;;5.38;3.00;;;;;;;;;;6231317;28;20135;-74
2022/04/22 18:28:38;;;;;;;5.78;4.35;;;;;;;;;;6235247;28;20061;-76
2022/04/22 18:31:42;;;;;;;3.67;3.28;;;;;;;;;;6231780;28;20099;-72
2022/04/22 18:34:48;;;;;;;7.47;2.97;;;;;;;;;;6235394;28;20580;-72
2022/04/22 18:37:50;;;;;;;3.40;3.03;;;;;;;;;;6227371;28;20073;-73
2022/04/22 18:40:52;;;;;;;7.13;3.72;;;;;;;;;;6233234;28;20552;-73
2022/04/22 18:43:56;;;;;;;6.30;3.40;;;;;;;;;;6229969;28;20056;-71
2022/04/22 18:46:59;;;;;;;;;;;;;;;;;;6231587;28;20044;-73
2022/04/22 18:50:00;;;;;;;5.57;3.00;;;;;;;;;;6229828;28;20053;-73
2022/04/22 18:53:07;;;;;;;4.13;3.22;;;;;;;;;;6231909;28;20057;-74
2022/04/22 18:56:09;;;;;;;5.18;3.10;;;;;;;;;;6231884;28;20058;-74
2022/04/22 18:59:10;;;;;;;9.15;4.00;;;;;;;;;;6238199;28;20224;-75
2022/04/22 19:02:15;;;;;;;4.32;3.90;;;;;;;;;;6236616;28;20045;-74
2022/04/22 19:05:17;;;;;;;7.63;3.67;;;;;;;;;;6237603;28;20111;-72
2022/04/22 19:08:19;;;;;;;4.40;3.88;;;;;;;;;;6225902;28;20132;-74
2022/04/22 19:11:21;;;;;;;4.90;3.78;;;;;;;;;;6232447;28;20081;-74
2022/04/22 19:14:27;;;;;;;5.05;3.90;;;;;;;;;;6236278;28;20046;-74
2022/04/22 19:17:30;;;;;;;6.20;4.13;;;;;;;;;;6213711;28;20631;-73
2022/04/22 19:20:32;;;;;;;5.53;4.07;;;;;;;;;;6238504;28;20107;-75
2022/04/22 19:23:34;;;;;;;5.18;4.10;;;;;;;;;;6208446;28;20065;-75
2022/04/22 19:26:36;;;;;;;6.57;4.00;;;;;;;;;;6196169;28;20042;-76
2022/04/22 19:29:38;;;;;;;5.30;4.25;;;;;;;;;;6251272;23;20056;-76
2022/04/22 19:33:08;;;;;;;6.20;4.80;;;;;;;;;;6397891;22;20062;31
2022/04/22 19:42:50;;;;;;;9.63;5.00;;;;;;;;;;6203845;28;20054;-75
2022/04/22 19:45:53;;;;;;;9.25;5.70;;;;;;;;;;6211806;28;20062;-75
2022/04/22 19:48:54;;;;;;;8.10;5.88;;;;;;;;;;6222309;28;20075;-76
2022/04/22 19:51:58;;;;;;;7.22;5.80;;;;;;;;;;6223222;28;20241;-76
2022/04/22 19:55:00;;;;;;;8.18;6.68;;;;;;;;;;6221183;28;20062;-75
2022/04/22 19:58:02;;;;;;;8.20;6.15;;;;;;;;;;6220878;28;20288;-75
2022/04/22 20:01:03;;;;;;;10.27;6.32;;;;;;;;;;6223052;28;20065;-75
2022/04/22 20:04:05;;;;;;;8.73;7.43;;;;;;;;;;6224810;28;20064;-75
2022/04/22 20:07:10;;;;;;;7.95;6.45;;;;;;;;;;6223102;28;20050;-76
2022/04/22 20:10:12;;;;;;;9.95;7.25;;;;;;;;;;6224513;28;20141;-76
2022/04/22 20:13:14;;;;;;;9.27;6.55;;;;;;;;;;6220202;28;20132;-78
2022/04/22 20:16:18;;;;;;;10.43;7.50;;;;;;;;;;6224861;28;20069;-75
2022/04/22 20:19:20;;;;;;;11.23;8.68;;;;;;;;;;6227185;28;20050;-76
2022/04/22 20:22:23;;;;;;;13.02;9.05;;;;;;;;;;6223693;28;20349;-76